createdAt,value
2024-02-08T00:00:55.974Z,93970.00
2024-02-08T00:01:55.935Z,93965.00
2024-02-08T00:02:55.862Z,93964.00
2024-02-08T00:03:55.935Z,93964.00
2024-02-08T00:04:55.888Z,93960.00
2024-02-08T00:05:55.935Z,93957.00
2024-02-08T00:06:55.971Z,93953.00
2024-02-08T00:07:56.007Z,93958.00
2024-02-08T00:08:56.024Z,93964.00
2024-02-08T00:09:56.006Z,93969.00
2024-02-08T00:10:56.092Z,93964.00
2024-02-08T00:11:56.120Z,93960.00
2024-02-08T00:12:56.083Z,93957.00
2024-02-08T00:13:56.175Z,93963.00
2024-02-08T00:14:56.169Z,93964.00
2024-02-08T00:15:58.916Z,93965.00
2024-02-08T00:16:56.193Z,93965.00
2024-02-08T00:17:56.180Z,93960.00
2024-02-08T00:18:56.226Z,93964.00
2024-02-08T00:19:56.126Z,93968.00
2024-02-08T00:20:56.085Z,93967.00
2024-02-08T00:21:56.084Z,93962.00
2024-02-08T00:22:56.076Z,93963.00
2024-02-08T00:23:56.079Z,93966.00
2024-02-08T00:24:56.041Z,93968.00
2024-02-08T00:25:56.057Z,93961.00
2024-02-08T00:26:55.993Z,93962.00
2024-02-08T00:27:56.010Z,93969.00
2024-02-08T00:28:56.049Z,93969.00
2024-02-08T00:29:56.010Z,93973.00
2024-02-08T00:30:55.989Z,93970.00
2024-02-08T00:31:56.033Z,93963.00
2024-02-08T00:32:55.999Z,93957.00
2024-02-08T00:33:55.990Z,93956.00
2024-02-08T00:34:56.009Z,93958.00
2024-02-08T00:35:55.938Z,93960.00
2024-02-08T00:36:55.886Z,93961.00
2024-02-08T00:37:56.018Z,93957.00
2024-02-08T00:38:55.945Z,93954.00
2024-02-08T00:39:55.873Z,93952.00
2024-02-08T00:40:55.861Z,93952.00
2024-02-08T00:41:55.796Z,93950.00
2024-02-08T00:42:55.782Z,93947.00
2024-02-08T00:43:55.858Z,93948.00
2024-02-08T00:44:55.791Z,93942.00
2024-02-08T00:45:55.822Z,93946.00
2024-02-08T00:46:55.824Z,93943.00
2024-02-08T00:47:56.072Z,93937.00
2024-02-08T00:48:55.934Z,93930.00
2024-02-08T00:49:55.745Z,93943.00
2024-02-08T00:50:55.734Z,93943.00
2024-02-08T00:51:55.726Z,93941.00
2024-02-08T00:52:55.741Z,93941.00
2024-02-08T00:53:55.860Z,93941.00
2024-02-08T00:54:55.612Z,93938.00
2024-02-08T00:55:55.666Z,93944.00
2024-02-08T00:56:55.572Z,93937.00
2024-02-08T00:57:55.675Z,93937.00
2024-02-08T00:58:55.591Z,93934.00
2024-02-08T00:59:55.570Z,93931.00
2024-02-08T01:00:55.520Z,93936.00
2024-02-08T01:01:55.621Z,93934.00
2024-02-08T01:02:55.614Z,93934.00
2024-02-08T01:03:55.961Z,93938.00
2024-02-08T01:04:55.489Z,93930.00
2024-02-08T01:05:55.476Z,93927.00
2024-02-08T01:06:55.424Z,93923.00
2024-02-08T01:07:55.391Z,93923.00
2024-02-08T01:08:55.413Z,93922.00
2024-02-08T01:09:55.344Z,93923.00
2024-02-08T01:10:55.390Z,93919.00
2024-02-08T01:11:55.335Z,93914.00
2024-02-08T01:12:55.332Z,93923.00
2024-02-08T01:13:55.367Z,93926.00
2024-02-08T01:14:55.274Z,93929.00
2024-02-08T01:15:55.250Z,93929.00
2024-02-08T01:16:55.317Z,93917.00
2024-02-08T01:17:55.325Z,93923.00
2024-02-08T01:18:55.376Z,93929.00
2024-02-08T01:19:55.246Z,93934.00
2024-02-08T01:20:55.182Z,93938.00
2024-02-08T01:21:55.193Z,93938.00
2024-02-08T01:22:55.185Z,93936.00
2024-02-08T01:23:55.153Z,93946.00
2024-02-08T01:24:55.101Z,93947.00
2024-02-08T01:25:55.127Z,93943.00
2024-02-08T01:26:55.117Z,93942.00
2024-02-08T01:27:55.083Z,93944.00
2024-02-08T01:28:55.405Z,93947.00
2024-02-08T01:29:55.036Z,93944.00
2024-02-08T01:30:55.049Z,93943.00
2024-02-08T01:31:55.072Z,93942.00
2024-02-08T01:32:55.030Z,93949.00
2024-02-08T01:33:55.090Z,93950.00
2024-02-08T01:34:55.041Z,93955.00
2024-02-08T01:35:54.973Z,93949.00
2024-02-08T01:36:55.138Z,93947.00
2024-02-08T01:37:55.194Z,93954.00
2024-02-08T01:38:55.098Z,93952.00
2024-02-08T01:39:55.116Z,93953.00
2024-02-08T01:40:55.114Z,93962.00
2024-02-08T01:41:55.114Z,93962.00
2024-02-08T01:42:55.090Z,93958.00
2024-02-08T01:43:55.162Z,93958.00
2024-02-08T01:44:55.134Z,93954.00
2024-02-08T01:45:55.148Z,93952.00
2024-02-08T01:46:55.236Z,93960.00
2024-02-08T01:47:55.296Z,93960.00
2024-02-08T01:48:55.233Z,93954.00
2024-02-08T01:49:55.231Z,93951.00
2024-02-08T01:50:55.221Z,93954.00
2024-02-08T01:51:55.256Z,93957.00
2024-02-08T01:52:55.467Z,93958.00
2024-02-08T01:53:55.309Z,93954.00
2024-02-08T01:54:55.347Z,93957.00
2024-02-08T01:55:55.454Z,93956.00
2024-02-08T01:56:55.431Z,93955.00
2024-02-08T01:57:55.485Z,93959.00
2024-02-08T01:58:55.891Z,93957.00
2024-02-08T01:59:55.545Z,93954.00
2024-02-08T02:00:55.576Z,93957.00
2024-02-08T02:01:55.584Z,93957.00
2024-02-08T02:02:55.602Z,93957.00
2024-02-08T02:03:55.675Z,93957.00
2024-02-08T02:04:55.742Z,93957.00
2024-02-08T02:05:55.689Z,93959.00
2024-02-08T02:06:55.734Z,93958.00
2024-02-08T02:07:55.791Z,93960.00
2024-02-08T02:08:55.819Z,93964.00
2024-02-08T02:09:55.859Z,93964.00
2024-02-08T02:10:55.929Z,93963.00
2024-02-08T02:11:55.957Z,93964.00
2024-02-08T02:12:55.953Z,93962.00
2024-02-08T02:13:55.969Z,93960.00
2024-02-08T02:14:55.956Z,93959.00
2024-02-08T02:15:55.959Z,93956.00
2024-02-08T02:16:55.961Z,93954.00
2024-02-08T02:17:56.015Z,93956.00
2024-02-08T02:18:56.053Z,93953.00
2024-02-08T02:19:56.052Z,93951.00
2024-02-08T02:20:56.108Z,93954.00
2024-02-08T02:21:56.112Z,93954.00
2024-02-08T02:22:56.191Z,93950.00
2024-02-08T02:23:56.167Z,93947.00
2024-02-08T02:24:56.160Z,93948.00
2024-02-08T02:25:56.253Z,93947.00
2024-02-08T02:26:56.190Z,93948.00
2024-02-08T02:27:56.146Z,93943.00
2024-02-08T02:28:56.280Z,93944.00
2024-02-08T02:29:56.127Z,93946.00
2024-02-08T02:30:56.172Z,93947.00
2024-02-08T02:31:56.231Z,93946.00
2024-02-08T02:32:56.261Z,93946.00
2024-02-08T02:33:56.304Z,93949.00
2024-02-08T02:34:56.294Z,93949.00
2024-02-08T02:35:56.301Z,93948.00
2024-02-08T02:36:56.336Z,93950.00
2024-02-08T02:37:56.386Z,93951.00
2024-02-08T02:38:56.388Z,93951.00
2024-02-08T02:39:56.433Z,93949.00
2024-02-08T02:40:56.601Z,93950.00
2024-02-08T02:41:56.492Z,93950.00
2024-02-08T02:42:56.522Z,93951.00
2024-02-08T02:43:57.008Z,93951.00
2024-02-08T02:44:56.585Z,93947.00
2024-02-08T02:45:56.676Z,93942.00
2024-02-08T02:46:56.623Z,93939.00
2024-02-08T02:47:56.682Z,93939.00
2024-02-08T02:48:56.733Z,93940.00
2024-02-08T02:49:56.734Z,93946.00
2024-02-08T02:50:56.678Z,93951.00
2024-02-08T02:51:56.642Z,93953.00
2024-02-08T02:52:56.691Z,93957.00
2024-02-08T02:53:56.872Z,93953.00
2024-02-08T02:54:56.694Z,93953.00
2024-02-08T02:55:56.696Z,93953.00
2024-02-08T02:56:56.648Z,93948.00
2024-02-08T02:57:56.688Z,93945.00
2024-02-08T02:58:56.757Z,93942.00
2024-02-08T02:59:56.628Z,93942.00
2024-02-08T03:00:56.691Z,93944.00
2024-02-08T03:01:56.706Z,93946.00
2024-02-08T03:02:56.652Z,93946.00
2024-02-08T03:03:56.732Z,93949.00
2024-02-08T03:04:56.659Z,93947.00
2024-02-08T03:05:56.597Z,93947.00
2024-02-08T03:06:56.708Z,93949.00
2024-02-08T03:07:56.751Z,93952.00
2024-02-08T03:08:56.610Z,93953.00
2024-02-08T03:09:56.627Z,93952.00
2024-02-08T03:10:56.737Z,93948.00
2024-02-08T03:11:56.588Z,93943.00
2024-02-08T03:12:56.590Z,93940.00
2024-02-08T03:13:56.683Z,93933.00
2024-02-08T03:14:56.592Z,93936.00
2024-02-08T03:15:56.652Z,93938.00
2024-02-08T03:16:56.675Z,93943.00
2024-02-08T03:17:56.675Z,93950.00
2024-02-08T03:18:56.683Z,93946.00
2024-02-08T03:19:56.645Z,93945.00
2024-02-08T03:20:56.637Z,93946.00
2024-02-08T03:21:56.657Z,93946.00
2024-02-08T03:22:56.693Z,93944.00
2024-02-08T03:23:56.691Z,93944.00
2024-02-08T03:24:56.656Z,93944.00
2024-02-08T03:25:56.688Z,93942.00
2024-02-08T03:26:56.694Z,93946.00
2024-02-08T03:27:56.686Z,93952.00
2024-02-08T03:28:56.849Z,93956.00
2024-02-08T03:29:56.799Z,93949.00
2024-02-08T03:30:56.823Z,93948.00
2024-02-08T03:31:56.873Z,93946.00
2024-02-08T03:32:57.046Z,93948.00
2024-02-08T03:33:56.990Z,93945.00
2024-02-08T03:34:56.984Z,93950.00
2024-02-08T03:35:56.927Z,93952.00
2024-02-08T03:36:57.214Z,93953.00
2024-02-08T03:37:57.268Z,93947.00
2024-02-08T03:38:57.130Z,93950.00
2024-02-08T03:39:57.161Z,93950.00
2024-02-08T03:40:57.221Z,93953.00
2024-02-08T03:41:57.188Z,93954.00
2024-02-08T03:42:57.228Z,93954.00
2024-02-08T03:43:57.219Z,93953.00
2024-02-08T03:44:57.322Z,93956.00
2024-02-08T03:45:57.393Z,93961.00
2024-02-08T03:46:57.311Z,93961.00
2024-02-08T03:47:57.275Z,93958.00
2024-02-08T03:48:57.338Z,93963.00
2024-02-08T03:49:57.349Z,93964.00
2024-02-08T03:50:57.276Z,93963.00
2024-02-08T03:51:57.302Z,93958.00
2024-02-08T03:52:57.345Z,93961.00
2024-02-08T03:53:57.380Z,93962.00
2024-02-08T03:54:57.331Z,93959.00
2024-02-08T03:55:57.457Z,93963.00
2024-02-08T03:56:57.413Z,93962.00
2024-02-08T03:57:57.411Z,93963.00
2024-02-08T03:58:57.470Z,93964.00
2024-02-08T03:59:57.425Z,93966.00
2024-02-08T04:00:57.442Z,93965.00
2024-02-08T04:01:57.473Z,93964.00
2024-02-08T04:02:57.443Z,93966.00
2024-02-08T04:03:57.546Z,93968.00
2024-02-08T04:04:57.618Z,93954.00
2024-02-08T04:05:57.597Z,93965.00
2024-02-08T04:06:57.622Z,93957.00
2024-02-08T04:07:57.660Z,93960.00
2024-02-08T04:08:57.642Z,93955.00
2024-02-08T04:09:58.074Z,93947.00
2024-02-08T04:10:57.642Z,93950.00
2024-02-08T04:11:57.660Z,93949.00
2024-02-08T04:12:57.659Z,93952.00
2024-02-08T04:13:57.739Z,93943.00
2024-02-08T04:14:57.730Z,93951.00
2024-02-08T04:16:00.577Z,93951.00
2024-02-08T04:16:57.779Z,93957.00
2024-02-08T04:17:57.876Z,93952.00
2024-02-08T04:18:58.016Z,93953.00
2024-02-08T04:19:57.713Z,93952.00
2024-02-08T04:20:57.722Z,93949.00
2024-02-08T04:21:57.714Z,93948.00
2024-02-08T04:22:57.752Z,93947.00
2024-02-08T04:23:57.659Z,93943.00
2024-02-08T04:24:57.651Z,93947.00
2024-02-08T04:26:05.045Z,93946.00
2024-02-08T04:27:04.853Z,93949.00
2024-02-08T04:28:04.918Z,93946.00
2024-02-08T04:29:05.050Z,93957.00
2024-02-08T04:30:04.908Z,93957.00
2024-02-08T04:31:12.123Z,93967.00
2024-02-08T04:32:12.187Z,93969.00
2024-02-08T04:33:12.259Z,93963.00
2024-02-08T04:34:12.313Z,93961.00
2024-02-08T04:35:12.391Z,93961.00
2024-02-08T04:36:12.154Z,93963.00
2024-02-08T04:37:12.162Z,93963.00
2024-02-08T04:38:12.239Z,93955.00
2024-02-08T04:39:12.151Z,93955.00
2024-02-08T04:40:12.158Z,93964.00
2024-02-08T04:41:12.234Z,93970.00
2024-02-08T04:42:12.197Z,93969.00
2024-02-08T04:43:12.211Z,93972.00
2024-02-08T04:44:12.261Z,93968.00
2024-02-08T04:45:12.222Z,93964.00
2024-02-08T04:46:12.231Z,93963.00
2024-02-08T04:47:12.247Z,93963.00
2024-02-08T04:48:12.262Z,93964.00
2024-02-08T04:49:12.290Z,93965.00
2024-02-08T04:50:12.212Z,93967.00
2024-02-08T04:51:12.231Z,93967.00
2024-02-08T04:52:14.570Z,93966.00
2024-02-08T04:53:12.486Z,93966.00
2024-02-08T04:54:12.543Z,93965.00
2024-02-08T04:55:12.593Z,93963.00
2024-02-08T04:56:12.739Z,93963.00
2024-02-08T04:57:13.248Z,93966.00
2024-02-08T04:58:36.220Z,93963.00
2024-02-08T04:59:21.815Z,93963.00
2024-02-08T05:00:13.842Z,93960.00
2024-02-08T05:01:12.818Z,93961.00
2024-02-08T05:02:12.831Z,93958.00
2024-02-08T05:03:12.798Z,93956.00
2024-02-08T05:04:12.965Z,93956.00
2024-02-08T05:05:13.012Z,93952.00
2024-02-08T05:06:12.922Z,93951.00
2024-02-08T05:07:13.005Z,93954.00
2024-02-08T05:08:12.903Z,93955.00
2024-02-08T05:09:13.216Z,93954.00
2024-02-08T05:10:12.984Z,93953.00
2024-02-08T05:11:12.953Z,93953.00
2024-02-08T05:12:12.906Z,93956.00
2024-02-08T05:13:12.977Z,93960.00
2024-02-08T05:14:12.925Z,93958.00
2024-02-08T05:15:12.947Z,93958.00
2024-02-08T05:16:12.960Z,93956.00
2024-02-08T05:17:12.948Z,93953.00
2024-02-08T05:18:13.087Z,93953.00
2024-02-08T05:19:13.085Z,93958.00
2024-02-08T05:20:12.964Z,93959.00
2024-02-08T05:21:12.985Z,93953.00
2024-02-08T05:22:13.072Z,93951.00
2024-02-08T05:23:13.003Z,93954.00
2024-02-08T05:24:13.229Z,93956.00
2024-02-08T05:25:13.097Z,93954.00
2024-02-08T05:26:13.173Z,93953.00
2024-02-08T05:27:13.390Z,93955.00
2024-02-08T05:28:13.303Z,93959.00
2024-02-08T05:29:13.359Z,93956.00
2024-02-08T05:30:13.406Z,93952.00
2024-02-08T05:31:13.493Z,93947.00
2024-02-08T05:32:13.553Z,93945.00
2024-02-08T05:33:16.684Z,93945.00
2024-02-08T05:34:17.224Z,93946.00
2024-02-08T05:35:13.678Z,93946.00
2024-02-08T05:36:13.609Z,93945.00
2024-02-08T05:37:13.752Z,93947.00
2024-02-08T05:38:13.641Z,93945.00
2024-02-08T05:39:13.665Z,93946.00
2024-02-08T05:40:13.746Z,93944.00
2024-02-08T05:41:13.689Z,93942.00
2024-02-08T05:42:13.699Z,93943.00
2024-02-08T05:43:13.777Z,93943.00
2024-02-08T05:44:13.930Z,93941.00
2024-02-08T05:45:13.725Z,93940.00
2024-02-08T05:46:13.851Z,93937.00
2024-02-08T05:47:13.826Z,93940.00
2024-02-08T05:48:13.911Z,93938.00
2024-02-08T05:49:14.333Z,93942.00
2024-02-08T05:50:14.075Z,93944.00
2024-02-08T05:51:14.016Z,93947.00
2024-02-08T05:52:14.134Z,93947.00
2024-02-08T05:53:14.184Z,93950.00
2024-02-08T05:54:14.263Z,93948.00
2024-02-08T05:55:14.468Z,93947.00
2024-02-08T05:56:14.378Z,93944.00
2024-02-08T05:57:14.461Z,93945.00
2024-02-08T05:58:14.544Z,93945.00
2024-02-08T05:59:14.578Z,93946.00
2024-02-08T06:00:14.666Z,93944.00
2024-02-08T06:01:14.775Z,93943.00
2024-02-08T06:02:14.897Z,93944.00
2024-02-08T06:03:14.832Z,93944.00
2024-02-08T06:04:15.036Z,93948.00
2024-02-08T06:05:18.219Z,93948.00
2024-02-08T06:06:15.009Z,93952.00
2024-02-08T06:07:14.999Z,93953.00
2024-02-08T06:08:15.039Z,93955.00
2024-02-08T06:09:15.311Z,93956.00
2024-02-08T06:10:16.087Z,93958.00
2024-02-08T06:11:15.037Z,93961.00
2024-02-08T06:12:15.048Z,93962.00
2024-02-08T06:13:15.149Z,93963.00
2024-02-08T06:14:15.036Z,93959.00
2024-02-08T06:15:15.071Z,93955.00
2024-02-08T06:16:15.086Z,93953.00
2024-02-08T06:17:15.083Z,93950.00
2024-02-08T06:18:15.150Z,93953.00
2024-02-08T06:19:15.362Z,93953.00
2024-02-08T06:20:15.113Z,93957.00
2024-02-08T06:21:15.132Z,93962.00
2024-02-08T06:22:15.116Z,93965.00
2024-02-08T06:23:15.162Z,93964.00
2024-02-08T06:24:15.235Z,93966.00
2024-02-08T06:25:15.332Z,93966.00
2024-02-08T06:26:15.346Z,93968.00
2024-02-08T06:27:16.234Z,93964.00
2024-02-08T06:28:15.499Z,93963.00
2024-02-08T06:29:15.573Z,93963.00
2024-02-08T06:30:15.704Z,93961.00
2024-02-08T06:31:15.703Z,93964.00
2024-02-08T06:32:15.765Z,93961.00
2024-02-08T06:33:15.889Z,93963.00
2024-02-08T06:34:15.996Z,93966.00
2024-02-08T06:35:16.006Z,93969.00
2024-02-08T06:36:16.028Z,93971.00
2024-02-08T06:37:16.204Z,93972.00
2024-02-08T06:38:16.188Z,93971.00
2024-02-08T06:39:16.303Z,93971.00
2024-02-08T06:40:16.353Z,93976.00
2024-02-08T06:41:16.385Z,93976.00
2024-02-08T06:42:16.451Z,93972.00
2024-02-08T06:43:16.509Z,93967.00
2024-02-08T06:44:16.602Z,93964.00
2024-02-08T06:45:16.612Z,93962.00
2024-02-08T06:46:16.742Z,93959.00
2024-02-08T06:47:16.729Z,93958.00
2024-02-08T06:48:17.013Z,93960.00
2024-02-08T06:49:17.046Z,93960.00
2024-02-08T06:50:16.953Z,93960.00
2024-02-08T06:51:16.999Z,93960.00
2024-02-08T06:52:17.104Z,93962.00
2024-02-08T06:53:17.114Z,93964.00
2024-02-08T06:54:17.313Z,93965.00
2024-02-08T06:55:17.258Z,93973.00
2024-02-08T06:56:17.301Z,93971.00
2024-02-08T06:57:18.282Z,93969.00
2024-02-08T06:58:17.471Z,93968.00
2024-02-08T06:59:17.780Z,93969.00
2024-02-08T07:00:17.502Z,93970.00
2024-02-08T07:01:17.635Z,93969.00
2024-02-08T07:02:17.652Z,93969.00
2024-02-08T07:03:17.693Z,93965.00
2024-02-08T07:04:18.895Z,93964.00
2024-02-08T07:05:17.841Z,93966.00
2024-02-08T07:06:17.775Z,93966.00
2024-02-08T07:07:17.943Z,93966.00
2024-02-08T07:08:17.971Z,93964.00
2024-02-08T07:09:18.310Z,93964.00
2024-02-08T07:10:17.995Z,93964.00
2024-02-08T07:11:17.978Z,93962.00
2024-02-08T07:12:18.029Z,93965.00
2024-02-08T07:13:18.093Z,93969.00
2024-02-08T07:14:18.284Z,93972.00
2024-02-08T07:15:18.073Z,93972.00
2024-02-08T07:16:18.168Z,93975.00
2024-02-08T07:17:18.153Z,93974.00
2024-02-08T07:18:18.207Z,93975.00
2024-02-08T07:19:18.403Z,93975.00
2024-02-08T07:20:18.279Z,93979.00
2024-02-08T07:21:18.177Z,93979.00
2024-02-08T07:22:18.258Z,93982.00
2024-02-08T07:23:18.161Z,93979.00
2024-02-08T07:24:18.301Z,93981.00
2024-02-08T07:25:18.253Z,93982.00
2024-02-08T07:26:18.223Z,93981.00
2024-02-08T07:27:18.215Z,93979.00
2024-02-08T07:28:18.297Z,93976.00
2024-02-08T07:29:18.299Z,93972.00
2024-02-08T07:30:18.363Z,93966.00
2024-02-08T07:31:18.391Z,93962.00
2024-02-08T07:32:18.357Z,93956.00
2024-02-08T07:33:18.460Z,93953.00
2024-02-08T07:34:18.604Z,93956.00
2024-02-08T07:35:18.530Z,93960.00
2024-02-08T07:36:21.119Z,93957.00
2024-02-08T07:37:18.577Z,93953.00
2024-02-08T07:38:18.546Z,93947.00
2024-02-08T07:39:18.813Z,93950.00
2024-02-08T07:40:18.560Z,93953.00
2024-02-08T07:41:18.516Z,93964.00
2024-02-08T07:42:18.551Z,93963.00
2024-02-08T07:43:18.665Z,93963.00
2024-02-08T07:44:19.301Z,93955.00
2024-02-08T07:45:18.496Z,93958.00
2024-02-08T07:46:18.542Z,93959.00
2024-02-08T07:47:18.514Z,93965.00
2024-02-08T07:48:18.557Z,93966.00
2024-02-08T07:49:18.700Z,93965.00
2024-02-08T07:50:19.362Z,93967.00
2024-02-08T07:51:18.424Z,93968.00
2024-02-08T07:52:18.466Z,93955.00
2024-02-08T07:53:18.445Z,93956.00
2024-02-08T07:54:18.410Z,93950.00
2024-02-08T07:55:18.435Z,93948.00
2024-02-08T07:56:18.360Z,93948.00
2024-02-08T07:57:18.379Z,93947.00
2024-02-08T07:58:18.352Z,93948.00
2024-02-08T07:59:18.341Z,93947.00
2024-02-08T08:00:18.293Z,93948.00
2024-02-08T08:01:18.383Z,93946.00
2024-02-08T08:02:18.262Z,93945.00
2024-02-08T08:03:18.475Z,93948.00
2024-02-08T08:04:18.352Z,93948.00
2024-02-08T08:05:18.329Z,93946.00
2024-02-08T08:06:18.262Z,93947.00
2024-02-08T08:07:18.281Z,93948.00
2024-02-08T08:08:18.256Z,93948.00
2024-02-08T08:09:18.867Z,93946.00
2024-02-08T08:10:18.429Z,93945.00
2024-02-08T08:11:18.469Z,93947.00
2024-02-08T08:12:18.463Z,93949.00
2024-02-08T08:13:18.526Z,93949.00
2024-02-08T08:14:18.854Z,93950.00
2024-02-08T08:15:18.588Z,93951.00
2024-02-08T08:16:18.682Z,93951.00
2024-02-08T08:17:18.902Z,93953.00
2024-02-08T08:18:18.738Z,93952.00
2024-02-08T08:19:18.795Z,93950.00
2024-02-08T08:20:19.138Z,93953.00
2024-02-08T08:21:18.728Z,93951.00
2024-02-08T08:22:18.833Z,93950.00
2024-02-08T08:23:18.787Z,93950.00
2024-02-08T08:24:19.098Z,93950.00
2024-02-08T08:25:18.800Z,93947.00
2024-02-08T08:26:18.777Z,93946.00
2024-02-08T08:27:18.825Z,93946.00
2024-02-08T08:28:18.934Z,93950.00
2024-02-08T08:29:19.310Z,93952.00
2024-02-08T08:30:18.878Z,93953.00
2024-02-08T08:31:18.948Z,93953.00
2024-02-08T08:32:18.935Z,93948.00
2024-02-08T08:33:19.012Z,93948.00
2024-02-08T08:34:19.196Z,93948.00
2024-02-08T08:35:19.066Z,93947.00
2024-02-08T08:36:18.906Z,93942.00
2024-02-08T08:37:19.013Z,93938.00
2024-02-08T08:38:18.944Z,93937.00
2024-02-08T08:39:19.344Z,93936.00
2024-02-08T08:40:19.097Z,93934.00
2024-02-08T08:41:19.130Z,93939.00
2024-02-08T08:42:19.441Z,93937.00
2024-02-08T08:43:19.000Z,93934.00
2024-02-08T08:44:19.003Z,93936.00
2024-02-08T08:45:19.023Z,93937.00
2024-02-08T08:46:19.038Z,93933.00
2024-02-08T08:47:19.074Z,93940.00
2024-02-08T08:48:19.150Z,93938.00
2024-02-08T08:49:19.107Z,93937.00
2024-02-08T08:50:19.768Z,93941.00
2024-02-08T08:51:19.052Z,93936.00
2024-02-08T08:52:19.152Z,93932.00
2024-02-08T08:53:19.098Z,93931.00
2024-02-08T08:54:19.146Z,93932.00
2024-02-08T08:55:19.408Z,93931.00
2024-02-08T08:56:19.171Z,93929.00
2024-02-08T08:57:19.157Z,93929.00
2024-02-08T08:58:19.293Z,93928.00
2024-02-08T08:59:19.248Z,93928.00
2024-02-08T09:00:19.258Z,93928.00
2024-02-08T09:01:19.488Z,93928.00
2024-02-08T09:02:19.392Z,93925.00
2024-02-08T09:03:19.351Z,93930.00
2024-02-08T09:04:19.912Z,93928.00
2024-02-08T09:05:19.569Z,93925.00
2024-02-08T09:06:19.430Z,93923.00
2024-02-08T09:07:19.545Z,93923.00
2024-02-08T09:08:19.629Z,93918.00
2024-02-08T09:09:19.540Z,93916.00
2024-02-08T09:10:19.552Z,93912.00
2024-02-08T09:11:19.605Z,93913.00
2024-02-08T09:12:19.755Z,93914.00
2024-02-08T09:13:19.672Z,93916.00
2024-02-08T09:14:19.833Z,93915.00
2024-02-08T09:15:19.778Z,93916.00
2024-02-08T09:16:19.855Z,93915.00
2024-02-08T09:17:24.945Z,93915.00
2024-02-08T09:18:20.908Z,93915.00
2024-02-08T09:19:19.901Z,93914.00
2024-02-08T09:20:19.913Z,93912.00
2024-02-08T09:21:19.737Z,93912.00
2024-02-08T09:22:20.115Z,93912.00
2024-02-08T09:23:19.757Z,93911.00
2024-02-08T09:24:20.005Z,93912.00
2024-02-08T09:25:27.537Z,93906.00
2024-02-08T09:26:21.340Z,93905.00
2024-02-08T09:27:19.680Z,93903.00
2024-02-08T09:28:19.687Z,93905.00
2024-02-08T09:29:19.823Z,93904.00
2024-02-08T09:30:19.616Z,93901.00
2024-02-08T09:31:19.617Z,93903.00
2024-02-08T09:32:19.604Z,93900.00
2024-02-08T09:33:19.610Z,93899.00
2024-02-08T09:34:19.920Z,93898.00
2024-02-08T09:35:19.609Z,93899.00
2024-02-08T09:36:19.598Z,93899.00
2024-02-08T09:37:19.700Z,93899.00
2024-02-08T09:38:19.699Z,93896.00
2024-02-08T09:39:19.865Z,93898.00
2024-02-08T09:40:19.831Z,93892.00
2024-02-08T09:41:19.830Z,93895.00
2024-02-08T09:42:19.888Z,93891.00
2024-02-08T09:43:20.077Z,93891.00
2024-02-08T09:44:20.368Z,93893.00
2024-02-08T09:45:20.045Z,93892.00
2024-02-08T09:46:20.035Z,93896.00
2024-02-08T09:47:20.055Z,93895.00
2024-02-08T09:48:20.188Z,93890.00
2024-02-08T09:49:20.556Z,93892.00
2024-02-08T09:50:20.166Z,93892.00
2024-02-08T09:51:20.154Z,93892.00
2024-02-08T09:52:20.155Z,93889.00
2024-02-08T09:53:20.106Z,93887.00
2024-02-08T09:54:20.381Z,93886.00
2024-02-08T09:55:20.255Z,93885.00
2024-02-08T09:56:20.197Z,93887.00
2024-02-08T09:57:20.210Z,93887.00
2024-02-08T09:58:20.257Z,93885.00
2024-02-08T09:59:20.223Z,93884.00
2024-02-08T10:00:20.235Z,93883.00
2024-02-08T10:01:20.358Z,93882.00
2024-02-08T10:02:20.288Z,93879.00
2024-02-08T10:03:20.367Z,93876.00
2024-02-08T10:04:20.578Z,93877.00
2024-02-08T10:05:20.859Z,93875.00
2024-02-08T10:06:20.369Z,93874.00
2024-02-08T10:07:20.373Z,93876.00
2024-02-08T10:08:20.335Z,93873.00
2024-02-08T10:09:20.403Z,93872.00
2024-02-08T10:10:20.369Z,93873.00
2024-02-08T10:11:20.342Z,93871.00
2024-02-08T10:12:20.600Z,93869.00
2024-02-08T10:13:20.291Z,93870.00
2024-02-08T10:14:20.355Z,93866.00
2024-02-08T10:15:20.374Z,93866.00
2024-02-08T10:16:20.447Z,93868.00
2024-02-08T10:17:20.407Z,93865.00
2024-02-08T10:18:20.500Z,93862.00
2024-02-08T10:19:20.608Z,93860.00
2024-02-08T10:20:20.484Z,93854.00
2024-02-08T10:21:20.435Z,93851.00
2024-02-08T10:22:20.427Z,93848.00
2024-02-08T10:23:20.377Z,93846.00
2024-02-08T10:24:20.422Z,93845.00
2024-02-08T10:25:20.470Z,93844.00
2024-02-08T10:26:20.484Z,93842.00
2024-02-08T10:27:20.415Z,93839.00
2024-02-08T10:28:20.498Z,93839.00
2024-02-08T10:29:20.485Z,93835.00
2024-02-08T10:30:20.469Z,93834.00
2024-02-08T10:31:20.568Z,93830.00
2024-02-08T10:32:20.432Z,93829.00
2024-02-08T10:33:20.502Z,93827.00
2024-02-08T10:34:20.469Z,93825.00
2024-02-08T10:35:20.487Z,93822.00
2024-02-08T10:36:23.209Z,93820.00
2024-02-08T10:37:20.471Z,93815.00
2024-02-08T10:38:20.391Z,93812.00
2024-02-08T10:39:20.855Z,93809.00
2024-02-08T10:40:20.437Z,93808.00
2024-02-08T10:41:20.379Z,93807.00
2024-02-08T10:42:21.780Z,93807.00
2024-02-08T10:43:20.401Z,93806.00
2024-02-08T10:44:20.393Z,93807.00
2024-02-08T10:45:20.386Z,93806.00
2024-02-08T10:46:20.568Z,93806.00
2024-02-08T10:47:28.820Z,93805.00
2024-02-08T10:48:21.412Z,93799.00
2024-02-08T10:49:20.473Z,93799.00
2024-02-08T10:50:20.537Z,93797.00
2024-02-08T10:51:20.407Z,93792.00
2024-02-08T10:52:20.460Z,93788.00
2024-02-08T10:53:20.352Z,93786.00
2024-02-08T10:54:20.376Z,93780.00
2024-02-08T10:55:20.435Z,93780.00
2024-02-08T10:56:20.304Z,93782.00
2024-02-08T10:57:20.307Z,93779.00
2024-02-08T10:58:20.333Z,93777.00
2024-02-08T10:59:20.252Z,93775.00
2024-02-08T11:00:20.268Z,93775.00
2024-02-08T11:01:20.390Z,93776.00
2024-02-08T11:02:20.247Z,93774.00
2024-02-08T11:03:20.224Z,93777.00
2024-02-08T11:04:20.434Z,93776.00
2024-02-08T11:05:20.306Z,93776.00
2024-02-08T11:06:20.341Z,93773.00
2024-02-08T11:07:20.364Z,93770.00
2024-02-08T11:08:20.361Z,93770.00
2024-02-08T11:09:20.893Z,93766.00
2024-02-08T11:10:20.500Z,93767.00
2024-02-08T11:11:20.472Z,93766.00
2024-02-08T11:12:20.552Z,93769.00
2024-02-08T11:13:20.600Z,93769.00
2024-02-08T11:14:20.897Z,93770.00
2024-02-08T11:15:20.667Z,93772.00
2024-02-08T11:16:21.283Z,93767.00
2024-02-08T11:17:20.820Z,93763.00
2024-02-08T11:18:20.847Z,93760.00
2024-02-08T11:19:21.270Z,93758.00
2024-02-08T11:20:20.922Z,93757.00
2024-02-08T11:21:20.909Z,93756.00
2024-02-08T11:22:20.980Z,93756.00
2024-02-08T11:23:21.028Z,93753.00
2024-02-08T11:24:23.125Z,93751.00
2024-02-08T11:25:21.747Z,93749.00
2024-02-08T11:26:21.010Z,93748.00
2024-02-08T11:27:20.965Z,93746.00
2024-02-08T11:28:26.592Z,93742.00
2024-02-08T11:29:21.909Z,93742.00
2024-02-08T11:30:20.890Z,93738.00
2024-02-08T11:31:20.939Z,93735.00
2024-02-08T11:32:20.870Z,93728.00
2024-02-08T11:33:20.849Z,93726.00
2024-02-08T11:34:20.956Z,93727.00
2024-02-08T11:35:20.996Z,93727.00
2024-02-08T11:36:20.748Z,93728.00
2024-02-08T11:37:21.226Z,93726.00
2024-02-08T11:38:20.714Z,93723.00
2024-02-08T11:39:20.753Z,93720.00
2024-02-08T11:40:20.968Z,93713.00
2024-02-08T11:41:20.826Z,93711.00
2024-02-08T11:42:20.851Z,93708.00
2024-02-08T11:43:21.159Z,93707.00
2024-02-08T11:44:20.889Z,93706.00
2024-02-08T11:45:21.381Z,93701.00